createdAt,value
2022-09-13T00:00:54.912Z,43.60
2022-09-13T00:06:01.701Z,43.00
2022-09-13T00:11:05.387Z,43.30
2022-09-13T00:16:13.388Z,43.40
2022-09-13T00:21:19.793Z,43.80
2022-09-13T00:26:24.677Z,43.60
2022-09-13T00:31:29.798Z,43.50
2022-09-13T00:36:34.705Z,43.70
2022-09-13T00:41:38.281Z,44.60
2022-09-13T00:46:45.361Z,43.90
2022-09-13T00:51:53.909Z,44.00
2022-09-13T00:57:00.301Z,43.70
2022-09-13T01:02:05.982Z,43.60
2022-09-13T01:07:14.028Z,43.70
2022-09-13T01:12:26.960Z,44.00
2022-09-13T01:17:31.490Z,43.50
2022-09-13T01:23:08.534Z,43.40
2022-09-13T01:28:42.238Z,43.60
2022-09-13T01:33:57.298Z,43.70
2022-09-13T01:39:04.637Z,44.30
2022-09-13T01:44:15.188Z,43.80
2022-09-13T01:49:26.002Z,43.70
2022-09-13T01:54:38.633Z,44.00
2022-09-13T01:59:50.999Z,43.80
2022-09-13T02:05:01.831Z,43.90
2022-09-13T02:10:09.371Z,43.80
2022-09-13T02:15:17.035Z,43.80
2022-09-13T02:20:26.140Z,44.50
2022-09-13T02:25:31.610Z,45.10
2022-09-13T02:30:40.322Z,45.00
2022-09-13T02:35:50.312Z,45.30
2022-09-13T02:41:00.715Z,45.20
2022-09-13T02:46:18.500Z,45.70
2022-09-13T02:51:31.535Z,45.20
2022-09-13T02:56:43.455Z,45.60
2022-09-13T03:01:51.181Z,45.40
2022-09-13T03:06:56.131Z,46.10
2022-09-13T03:12:35.073Z,45.30
2022-09-13T03:17:48.061Z,45.40
2022-09-13T03:23:19.671Z,44.70
2022-09-13T03:28:33.627Z,44.60
2022-09-13T03:33:45.663Z,44.30
2022-09-13T03:38:57.670Z,44.30
2022-09-13T03:44:04.079Z,44.50
2022-09-13T03:49:09.625Z,44.40
2022-09-13T03:54:18.192Z,44.50
2022-09-13T03:59:21.777Z,45.50
2022-09-13T04:04:24.950Z,45.10
2022-09-13T04:09:29.866Z,45.30
2022-09-13T04:14:33.616Z,45.30
2022-09-13T04:19:37.128Z,45.40
2022-09-13T04:24:43.315Z,45.10
2022-09-13T04:29:46.587Z,45.20
2022-09-13T04:34:50.062Z,45.60
2022-09-13T04:39:54.768Z,45.30
2022-09-13T04:44:58.051Z,45.20
2022-09-13T04:50:01.263Z,45.40
2022-09-13T04:55:06.961Z,45.40
2022-09-13T05:00:11.234Z,46.00
2022-09-13T05:05:15.140Z,46.10
2022-09-13T05:10:20.569Z,46.10
2022-09-13T05:15:23.738Z,46.00
2022-09-13T05:20:26.997Z,45.60
2022-09-13T05:25:31.586Z,45.60
2022-09-13T05:30:35.622Z,45.50
2022-09-13T05:35:42.123Z,45.70
2022-09-13T05:40:47.063Z,46.60
2022-09-13T05:45:50.369Z,47.50
2022-09-13T05:50:58.184Z,48.30
2022-09-13T05:56:03.840Z,48.30
2022-09-13T06:01:07.600Z,47.30
2022-09-13T06:06:12.239Z,46.80
2022-09-13T06:11:17.492Z,46.40
2022-09-13T06:16:21.160Z,46.10
2022-09-13T06:21:28.941Z,45.40
2022-09-13T06:26:34.097Z,44.90
2022-09-13T06:31:38.936Z,45.20
2022-09-13T06:36:42.157Z,45.20
2022-09-13T06:41:46.996Z,45.20
2022-09-13T06:46:50.189Z,45.30
2022-09-13T06:51:53.419Z,45.20
2022-09-13T06:56:58.045Z,45.10
2022-09-13T07:02:01.541Z,45.20
2022-09-13T07:07:05.021Z,45.10
2022-09-13T07:12:09.959Z,45.00
2022-09-13T07:17:13.176Z,44.70
2022-09-13T07:22:17.241Z,45.10
2022-09-13T07:27:21.831Z,45.20
2022-09-13T07:32:25.161Z,45.10
2022-09-13T07:37:28.784Z,44.60
2022-09-13T07:42:33.304Z,44.30
2022-09-13T07:47:36.472Z,44.20
2022-09-13T07:52:40.303Z,44.00
2022-09-13T07:57:44.924Z,44.10
2022-09-13T08:02:48.218Z,44.30
2022-09-13T08:07:51.420Z,44.50
2022-09-13T08:12:56.050Z,43.90
2022-09-13T08:17:59.235Z,43.50
2022-09-13T08:23:02.470Z,43.50
2022-09-13T08:28:09.668Z,43.20
2022-09-13T08:33:13.156Z,43.00
2022-09-13T08:38:16.649Z,43.10
2022-09-13T08:43:27.125Z,43.00
2022-09-13T08:48:35.637Z,42.60
2022-09-13T08:53:47.572Z,42.60
2022-09-13T08:59:14.289Z,42.50
2022-09-13T09:04:36.220Z,42.60
2022-09-13T09:09:44.886Z,42.30
2022-09-13T09:14:57.604Z,42.50
2022-09-13T09:20:10.024Z,42.10
2022-09-13T09:25:13.731Z,42.20
2022-09-13T09:30:18.642Z,42.60
2022-09-13T09:35:34.423Z,42.40
2022-09-13T09:40:39.411Z,41.90
2022-09-13T09:45:46.750Z,42.10
2022-09-13T09:50:54.596Z,41.80
2022-09-13T09:56:04.254Z,41.70
2022-09-13T10:01:20.480Z,41.20
2022-09-13T10:06:30.180Z,40.50
2022-09-13T10:11:46.246Z,40.80
2022-09-13T10:17:05.342Z,39.80
2022-09-13T10:22:13.348Z,39.40
2022-09-13T10:27:31.607Z,39.50
2022-09-13T10:32:38.934Z,39.30
2022-09-13T10:37:45.461Z,39.20
2022-09-13T10:42:53.713Z,38.90
2022-09-13T10:48:07.342Z,38.50
2022-09-13T10:53:34.984Z,37.80
2022-09-13T10:58:38.128Z,37.30
2022-09-13T11:03:59.770Z,38.10
2022-09-13T11:09:09.621Z,36.50
2022-09-13T11:14:25.646Z,36.90
2022-09-13T11:20:14.933Z,36.20
2022-09-13T11:25:32.909Z,35.60
2022-09-13T11:30:47.677Z,35.10
2022-09-13T11:36:05.453Z,35.20
2022-09-13T11:41:22.909Z,34.70
2022-09-13T11:46:31.541Z,34.40
2022-09-13T11:51:49.013Z,34.50
2022-09-13T11:56:57.009Z,33.30
2022-09-13T12:02:05.650Z,33.60
2022-09-13T12:07:15.365Z,33.70
2022-09-13T12:12:21.720Z,32.60
2022-09-13T12:17:30.577Z,33.20
2022-09-13T12:22:37.576Z,32.60
2022-09-13T12:27:44.199Z,32.00
2022-09-13T12:32:49.205Z,32.20
2022-09-13T12:38:29.376Z,32.20
2022-09-13T12:44:12.846Z,30.90
2022-09-13T12:49:34.088Z,30.90
2022-09-13T12:54:58.038Z,30.90
2022-09-13T13:00:20.597Z,31.00
2022-09-13T13:05:29.087Z,30.60
2022-09-13T13:10:34.497Z,31.00
2022-09-13T13:16:03.332Z,31.30
2022-09-13T13:21:25.148Z,30.40
2022-09-13T13:26:49.583Z,30.00
2022-09-13T13:32:22.325Z,30.00
2022-09-13T13:37:43.993Z,30.10
2022-09-13T13:42:47.300Z,30.00
2022-09-13T13:48:16.280Z,30.60
2022-09-13T13:53:34.709Z,30.00
2022-09-13T13:58:48.340Z,30.20
2022-09-13T14:04:05.371Z,30.20
2022-09-13T14:09:24.094Z,30.80
2022-09-13T14:14:40.962Z,30.40
2022-09-13T14:19:45.587Z,30.20
2022-09-13T14:24:51.680Z,30.70
2022-09-13T14:29:58.345Z,30.80
2022-09-13T14:35:03.973Z,30.90
2022-09-13T14:40:19.668Z,31.30
2022-09-13T14:45:28.846Z,30.90
2022-09-13T14:50:34.881Z,31.40
2022-09-13T14:55:44.835Z,31.30
2022-09-13T15:00:53.932Z,31.30
2022-09-13T15:05:59.284Z,31.50
2022-09-13T15:11:06.350Z,31.70
2022-09-13T15:16:29.459Z,31.70
2022-09-13T15:21:36.897Z,31.60
2022-09-13T15:26:42.545Z,32.10
2022-09-13T15:31:45.970Z,32.20
2022-09-13T15:36:53.235Z,32.20
2022-09-13T15:41:59.023Z,32.70
2022-09-13T15:47:05.017Z,32.50
2022-09-13T15:52:09.841Z,32.60
2022-09-13T15:57:18.915Z,32.80
2022-09-13T16:02:24.120Z,32.90
2022-09-13T16:07:28.234Z,33.10
2022-09-13T16:12:32.820Z,33.40
2022-09-13T16:17:36.128Z,33.10
2022-09-13T16:22:39.335Z,33.30
2022-09-13T16:27:45.097Z,33.90
2022-09-13T16:32:48.294Z,34.60
2022-09-13T16:37:52.686Z,34.70
2022-09-13T16:42:57.257Z,34.70
2022-09-13T16:48:00.586Z,34.70
2022-09-13T16:53:04.172Z,34.60
2022-09-13T16:58:08.851Z,34.60
2022-09-13T17:03:12.341Z,34.50
2022-09-13T17:08:16.388Z,34.60
2022-09-13T17:13:21.347Z,34.50
2022-09-13T17:18:24.598Z,34.50
2022-09-13T17:23:28.350Z,34.50
2022-09-13T17:28:35.674Z,34.60
2022-09-13T17:33:39.253Z,34.50
2022-09-13T17:38:43.505Z,34.50
2022-09-13T17:43:48.681Z,34.20
2022-09-13T17:48:53.409Z,34.00
2022-09-13T17:53:58.929Z,34.00
2022-09-13T17:59:10.374Z,34.40
2022-09-13T18:04:15.734Z,35.10
2022-09-13T18:09:19.614Z,35.00
2022-09-13T18:14:26.770Z,35.20
2022-09-13T18:19:45.369Z,35.30
2022-09-13T18:24:50.211Z,35.40
2022-09-13T18:29:55.171Z,35.40
2022-09-13T18:34:58.897Z,35.50
2022-09-13T18:40:04.313Z,35.50
2022-09-13T18:45:10.951Z,35.50
2022-09-13T18:50:19.230Z,35.70
2022-09-13T18:55:23.560Z,36.50
2022-09-13T19:00:29.128Z,35.60
2022-09-13T19:05:35.498Z,35.80
2022-09-13T19:10:39.572Z,36.00
2022-09-13T19:15:44.528Z,36.00
2022-09-13T19:20:48.151Z,36.20
2022-09-13T19:25:51.984Z,36.10
2022-09-13T19:30:57.011Z,36.10
2022-09-13T19:36:03.630Z,36.30
2022-09-13T19:41:09.490Z,36.30
2022-09-13T19:46:16.408Z,36.40
2022-09-13T19:51:22.346Z,36.50
2022-09-13T19:56:28.380Z,36.50
2022-09-13T20:01:35.370Z,36.60
2022-09-13T20:06:41.260Z,36.70
2022-09-13T20:11:46.228Z,36.80
2022-09-13T20:16:51.459Z,36.80
2022-09-13T20:21:55.405Z,37.00
2022-09-13T20:26:58.954Z,37.00
2022-09-13T20:32:04.412Z,37.10
2022-09-13T20:37:07.962Z,37.30
2022-09-13T20:42:12.083Z,37.40
2022-09-13T20:47:17.025Z,37.50
2022-09-13T20:52:20.579Z,37.70
2022-09-13T20:57:24.435Z,37.70
2022-09-13T21:02:30.035Z,37.70
2022-09-13T21:07:50.772Z,38.00
2022-09-13T21:12:54.085Z,38.10
2022-09-13T21:17:58.829Z,38.10
2022-09-13T21:23:02.997Z,38.30
2022-09-13T21:28:06.204Z,38.40
2022-09-13T21:33:10.808Z,38.30
2022-09-13T21:38:14.192Z,38.60
2022-09-13T21:43:17.394Z,38.40
2022-09-13T21:48:22.300Z,38.50
2022-09-13T21:53:25.513Z,38.40
2022-09-13T21:58:28.740Z,38.50
2022-09-13T22:03:35.394Z,38.70
2022-09-13T22:08:40.213Z,38.90
2022-09-13T22:13:47.179Z,38.90
2022-09-13T22:18:53.650Z,38.90
2022-09-13T22:23:58.393Z,39.10
2022-09-13T22:29:01.794Z,39.10
2022-09-13T22:34:07.463Z,39.20
2022-09-13T22:39:12.970Z,39.40
2022-09-13T22:44:16.180Z,39.30
2022-09-13T22:49:21.367Z,39.40
2022-09-13T22:54:24.769Z,39.50
2022-09-13T22:59:28.164Z,39.50
2022-09-13T23:04:32.697Z,39.60
2022-09-13T23:09:35.893Z,39.70
2022-09-13T23:14:39.110Z,39.80
2022-09-13T23:19:43.651Z,39.80
2022-09-13T23:24:46.879Z,39.90
2022-09-13T23:29:50.430Z,39.90
2022-09-13T23:34:55.027Z,40.00
2022-09-13T23:39:59.633Z,40.10
2022-09-13T23:45:02.987Z,40.10
2022-09-13T23:50:08.672Z,40.10
2022-09-13T23:55:14.779Z,40.30
